sensor_id;sensor_type;location;lat;lon;timestamp;pressure;altitude;pressure_sealevel;temperature;humidity
929;BME280;451;47.988;7.842;2023-02-01T00:03:23;99431.50;;;6.41;93.49
929;BME280;451;47.988;7.842;2023-02-01T00:12:28;99425.59;;;6.17;95.25
929;BME280;451;47.988;7.842;2023-02-01T00:21:31;99400.53;;;6.25;93.89
929;BME280;451;47.988;7.842;2023-02-01T00:30:35;99411.81;;;6.26;94.27
929;BME280;451;47.988;7.842;2023-02-01T00:39:38;99398.50;;;6.40;93.11
929;BME280;451;47.988;7.842;2023-02-01T00:48:43;99396.03;;;6.16;94.39
929;BME280;451;47.988;7.842;2023-02-01T00:57:47;99359.97;;;5.88;94.61
929;BME280;451;47.988;7.842;2023-02-01T01:06:51;99384.78;;;6.16;93.03
929;BME280;451;47.988;7.842;2023-02-01T01:15:55;99315.00;;;5.62;93.23
929;BME280;451;47.988;7.842;2023-02-01T01:24:59;99468.03;;;5.96;93.65
929;BME280;451;47.988;7.842;2023-02-01T01:34:14;99389.50;;;5.88;94.70
929;BME280;451;47.988;7.842;2023-02-01T01:43:19;99390.69;;;5.95;93.70
929;BME280;451;47.988;7.842;2023-02-01T01:52:25;99370.72;;;5.83;93.93
929;BME280;451;47.988;7.842;2023-02-01T02:01:30;99313.09;;;5.64;91.80
929;BME280;451;47.988;7.842;2023-02-01T02:10:33;99410.75;;;6.17;90.23
929;BME280;451;47.988;7.842;2023-02-01T02:20:22;99356.03;;;5.82;90.21
929;BME280;451;47.988;7.842;2023-02-01T02:29:48;99298.66;;;5.60;91.85
929;BME280;451;47.988;7.842;2023-02-01T02:39:05;99359.38;;;6.06;90.61
929;BME280;451;47.988;7.842;2023-02-01T02:48:14;99345.59;;;5.82;91.30
929;BME280;451;47.988;7.842;2023-02-01T02:57:25;99357.97;;;6.02;92.14
929;BME280;451;47.988;7.842;2023-02-01T03:06:47;99311.69;;;5.71;92.60
929;BME280;451;47.988;7.842;2023-02-01T03:15:58;99304.56;;;5.84;93.43
929;BME280;451;47.988;7.842;2023-02-01T03:25:06;99333.03;;;5.87;93.46
929;BME280;451;47.988;7.842;2023-02-01T03:34:13;99354.63;;;5.89;94.49
929;BME280;451;47.988;7.842;2023-02-01T03:43:19;99245.00;;;5.00;96.40
929;BME280;451;47.988;7.842;2023-02-01T03:52:28;99368.59;;;5.55;98.88
929;BME280;451;47.988;7.842;2023-02-01T04:01:31;99389.56;;;5.53;100.00
929;BME280;451;47.988;7.842;2023-02-01T04:10:36;99390.13;;;5.46;100.00
929;BME280;451;47.988;7.842;2023-02-01T04:19:40;99361.19;;;5.38;100.00
929;BME280;451;47.988;7.842;2023-02-01T04:28:44;99404.50;;;5.16;100.00
929;BME280;451;47.988;7.842;2023-02-01T04:37:49;99350.56;;;5.06;100.00
929;BME280;451;47.988;7.842;2023-02-01T04:46:53;99358.41;;;4.82;100.00
929;BME280;451;47.988;7.842;2023-02-01T04:55:56;99342.69;;;4.95;100.00
929;BME280;451;47.988;7.842;2023-02-01T05:05:01;99377.97;;;5.11;100.00
929;BME280;451;47.988;7.842;2023-02-01T05:14:04;99346.72;;;5.22;100.00
929;BME280;451;47.988;7.842;2023-02-01T05:23:08;99289.63;;;4.50;100.00
929;BME280;451;47.988;7.842;2023-02-01T05:32:11;99348.19;;;5.03;100.00
929;BME280;451;47.988;7.842;2023-02-01T05:41:16;99401.66;;;5.19;100.00
929;BME280;451;47.988;7.842;2023-02-01T05:50:19;99402.69;;;5.41;100.00
929;BME280;451;47.988;7.842;2023-02-01T05:59:23;99156.06;;;3.30;100.00
929;BME280;451;47.988;7.842;2023-02-01T06:08:26;99407.97;;;4.93;100.00
929;BME280;451;47.988;7.842;2023-02-01T06:17:30;99360.63;;;4.99;100.00
929;BME280;451;47.988;7.842;2023-02-01T06:26:33;99393.06;;;5.06;100.00
929;BME280;451;47.988;7.842;2023-02-01T06:35:38;99400.19;;;5.04;100.00
929;BME280;451;47.988;7.842;2023-02-01T06:44:43;99423.69;;;5.15;100.00
929;BME280;451;47.988;7.842;2023-02-01T06:53:47;99403.56;;;5.17;100.00
929;BME280;451;47.988;7.842;2023-02-01T07:02:50;99403.41;;;5.43;100.00
929;BME280;451;47.988;7.842;2023-02-01T07:11:54;99423.28;;;5.44;100.00
929;BME280;451;47.988;7.842;2023-02-01T07:20:58;99440.22;;;5.38;100.00
929;BME280;451;47.988;7.842;2023-02-01T07:30:04;99457.38;;;5.64;100.00
929;BME280;451;47.988;7.842;2023-02-01T07:39:07;99453.34;;;5.60;100.00
929;BME280;451;47.988;7.842;2023-02-01T07:48:11;99437.88;;;5.46;100.00
929;BME280;451;47.988;7.842;2023-02-01T07:57:14;99425.41;;;5.39;100.00
929;BME280;451;47.988;7.842;2023-02-01T08:06:19;99420.56;;;5.80;100.00
929;BME280;451;47.988;7.842;2023-02-01T08:15:22;99434.81;;;5.87;100.00
929;BME280;451;47.988;7.842;2023-02-01T08:24:29;99433.44;;;6.17;100.00
929;BME280;451;47.988;7.842;2023-02-01T08:33:32;99443.63;;;6.20;100.00
929;BME280;451;47.988;7.842;2023-02-01T08:42:37;99433.38;;;5.94;100.00
929;BME280;451;47.988;7.842;2023-02-01T08:52:02;99482.28;;;6.26;100.00
929;BME280;451;47.988;7.842;2023-02-01T09:01:09;99479.47;;;6.29;100.00
929;BME280;451;47.988;7.842;2023-02-01T09:10:14;99444.06;;;5.91;100.00
929;BME280;451;47.988;7.842;2023-02-01T09:19:18;99463.81;;;6.29;100.00
929;BME280;451;47.988;7.842;2023-02-01T09:28:21;99489.56;;;6.56;100.00
929;BME280;451;47.988;7.842;2023-02-01T09:37:26;99478.75;;;6.38;100.00
929;BME280;451;47.988;7.842;2023-02-01T09:46:31;99457.16;;;6.36;100.00
929;BME280;451;47.988;7.842;2023-02-01T09:55:40;99477.78;;;6.39;100.00
929;BME280;451;47.988;7.842;2023-02-01T10:04:44;99475.19;;;6.72;100.00
929;BME280;451;47.988;7.842;2023-02-01T10:13:55;99500.09;;;6.99;100.00
929;BME280;451;47.988;7.842;2023-02-01T10:23:08;99478.94;;;6.91;100.00
929;BME280;451;47.988;7.842;2023-02-01T10:32:19;99480.00;;;7.31;99.91
929;BME280;451;47.988;7.842;2023-02-01T10:41:26;99505.59;;;7.27;100.00
929;BME280;451;47.988;7.842;2023-02-01T10:50:37;99507.97;;;7.31;99.55
929;BME280;451;47.988;7.842;2023-02-01T10:59:42;99470.13;;;7.35;98.05
929;BME280;451;47.988;7.842;2023-02-01T11:08:52;99492.63;;;7.58;96.66
929;BME280;451;47.988;7.842;2023-02-01T11:17:55;99404.63;;;7.36;93.97
929;BME280;451;47.988;7.842;2023-02-01T11:27:04;99474.72;;;8.25;89.30
929;BME280;451;47.988;7.842;2023-02-01T11:36:10;99463.75;;;9.30;84.48
929;BME280;451;47.988;7.842;2023-02-01T11:45:20;99438.38;;;8.72;83.99
929;BME280;451;47.988;7.842;2023-02-01T11:54:33;99447.50;;;8.68;84.12
929;BME280;451;47.988;7.842;2023-02-01T12:04:12;99433.41;;;8.69;79.09
929;BME280;451;47.988;7.842;2023-02-01T12:13:35;99450.13;;;8.68;79.21
929;BME280;451;47.988;7.842;2023-02-01T12:22:49;99333.22;;;8.06;78.46
929;BME280;451;47.988;7.842;2023-02-01T12:32:12;99376.34;;;8.02;79.93
929;BME280;451;47.988;7.842;2023-02-01T12:41:33;99424.72;;;7.98;84.36
929;BME280;451;47.988;7.842;2023-02-01T12:50:43;99364.53;;;7.77;84.96
929;BME280;451;47.988;7.842;2023-02-01T12:59:52;99389.75;;;7.78;86.36
929;BME280;451;47.988;7.842;2023-02-01T13:09:02;99349.47;;;8.00;84.05
929;BME280;451;47.988;7.842;2023-02-01T13:18:13;99368.16;;;8.26;81.52
929;BME280;451;47.988;7.842;2023-02-01T13:27:17;99377.69;;;7.87;82.50
929;BME280;451;47.988;7.842;2023-02-01T13:36:39;99392.91;;;8.33;80.02
929;BME280;451;47.988;7.842;2023-02-01T13:45:47;99336.47;;;7.58;81.57
929;BME280;451;47.988;7.842;2023-02-01T13:55:03;99287.25;;;7.43;79.77
929;BME280;451;47.988;7.842;2023-02-01T14:04:45;99396.28;;;8.24;78.26
929;BME280;451;47.988;7.842;2023-02-01T14:13:50;99405.56;;;8.07;76.77
929;BME280;451;47.988;7.842;2023-02-01T14:23:01;99348.16;;;7.85;77.18
929;BME280;451;47.988;7.842;2023-02-01T14:32:07;99424.53;;;7.90;78.39
929;BME280;451;47.988;7.842;2023-02-01T14:41:26;99363.84;;;7.34;79.32
929;BME280;451;47.988;7.842;2023-02-01T14:50:34;99418.81;;;7.54;79.96
929;BME280;451;47.988;7.842;2023-02-01T14:59:42;99399.41;;;7.36;81.27
929;BME280;451;47.988;7.842;2023-02-01T15:08:46;99415.59;;;7.30;81.73
929;BME280;451;47.988;7.842;2023-02-01T15:17:53;99415.13;;;7.25;82.17
929;BME280;451;47.988;7.842;2023-02-01T15:27:03;99434.69;;;7.10;84.39
929;BME280;451;47.988;7.842;2023-02-01T15:36:08;99412.38;;;7.06;83.61
929;BME280;451;47.988;7.842;2023-02-01T15:45:18;99393.38;;;7.04;83.93
929;BME280;451;47.988;7.842;2023-02-01T15:54:24;99437.31;;;7.10;84.08
929;BME280;451;47.988;7.842;2023-02-01T16:03:36;99448.16;;;7.26;82.05
929;BME280;451;47.988;7.842;2023-02-01T16:12:46;99462.56;;;7.20;81.51
929;BME280;451;47.988;7.842;2023-02-01T16:21:55;99459.06;;;7.31;79.57
929;BME280;451;47.988;7.842;2023-02-01T16:31:00;99462.34;;;7.12;88.80
929;BME280;451;47.988;7.842;2023-02-01T16:40:08;99477.75;;;6.83;90.05
929;BME280;451;47.988;7.842;2023-02-01T16:49:18;99469.00;;;6.62;89.80
929;BME280;451;47.988;7.842;2023-02-01T16:58:24;99467.34;;;6.72;89.80
929;BME280;451;47.988;7.842;2023-02-01T17:07:27;99468.03;;;6.63;87.74
929;BME280;451;47.988;7.842;2023-02-01T17:16:32;99403.75;;;6.29;88.21
929;BME280;451;47.988;7.842;2023-02-01T17:25:35;99461.50;;;6.69;87.97
929;BME280;451;47.988;7.842;2023-02-01T17:34:39;99487.34;;;6.94;87.90
929;BME280;451;47.988;7.842;2023-02-01T17:43:42;99489.66;;;6.76;90.48
929;BME280;451;47.988;7.842;2023-02-01T17:52:46;99477.78;;;6.72;92.64
929;BME280;451;47.988;7.842;2023-02-01T18:01:49;99449.06;;;6.61;92.45
929;BME280;451;47.988;7.842;2023-02-01T18:10:56;99477.31;;;6.56;92.31
929;BME280;451;47.988;7.842;2023-02-01T18:20:01;99448.81;;;6.64;92.37
929;BME280;451;47.988;7.842;2023-02-01T18:29:05;99478.75;;;6.60;91.74
929;BME280;451;47.988;7.842;2023-02-01T18:38:08;99410.88;;;6.16;91.69
929;BME280;451;47.988;7.842;2023-02-01T18:47:13;99502.94;;;6.62;91.57
929;BME280;451;47.988;7.842;2023-02-01T18:56:16;99454.06;;;6.20;93.29
929;BME280;451;47.988;7.842;2023-02-01T19:05:21;99509.13;;;6.50;93.74
929;BME280;451;47.988;7.842;2023-02-01T19:14:24;99492.88;;;6.46;93.00
929;BME280;451;47.988;7.842;2023-02-01T19:23:28;99520.44;;;6.62;91.15
929;BME280;451;47.988;7.842;2023-02-01T19:32:31;99482.66;;;6.43;91.32
929;BME280;451;47.988;7.842;2023-02-01T19:41:35;99503.69;;;6.53;90.36
929;BME280;451;47.988;7.842;2023-02-01T19:50:39;99501.91;;;6.42;91.27
929;BME280;451;47.988;7.842;2023-02-01T19:59:43;99544.16;;;6.59;91.57
929;BME280;451;47.988;7.842;2023-02-01T20:08:47;99524.31;;;6.56;90.82
929;BME280;451;47.988;7.842;2023-02-01T20:17:52;99539.78;;;6.37;93.08
929;BME280;451;47.988;7.842;2023-02-01T20:26:55;99537.63;;;6.42;93.03
929;BME280;451;47.988;7.842;2023-02-01T20:36:00;99531.94;;;6.48;91.96
929;BME280;451;47.988;7.842;2023-02-01T20:45:03;99552.38;;;6.43;91.45
929;BME280;451;47.988;7.842;2023-02-01T20:54:08;99559.69;;;6.27;92.32
929;BME280;451;47.988;7.842;2023-02-01T21:03:11;99573.47;;;6.29;92.73
929;BME280;451;47.988;7.842;2023-02-01T21:12:15;99566.84;;;6.36;94.25
929;BME280;451;47.988;7.842;2023-02-01T21:21:18;99480.00;;;5.53;100.00
929;BME280;451;47.988;7.842;2023-02-01T21:30:23;99497.00;;;5.35;100.00
929;BME280;451;47.988;7.842;2023-02-01T21:39:26;99556.28;;;5.44;100.00
929;BME280;451;47.988;7.842;2023-02-01T21:48:31;99574.16;;;5.37;100.00
929;BME280;451;47.988;7.842;2023-02-01T21:57:33;99538.66;;;5.47;100.00
929;BME280;451;47.988;7.842;2023-02-01T22:06:39;99536.69;;;5.62;100.00
929;BME280;451;47.988;7.842;2023-02-01T22:15:43;99519.31;;;5.50;100.00
929;BME280;451;47.988;7.842;2023-02-01T22:24:47;99538.72;;;5.69;100.00
929;BME280;451;47.988;7.842;2023-02-01T22:33:50;99551.22;;;5.77;100.00
929;BME280;451;47.988;7.842;2023-02-01T22:42:54;99537.31;;;6.00;100.00
929;BME280;451;47.988;7.842;2023-02-01T22:51:57;99533.22;;;5.85;100.00
929;BME280;451;47.988;7.842;2023-02-01T23:01:05;99163.03;;;3.66;99.60
929;BME280;451;47.988;7.842;2023-02-01T23:10:10;99521.41;;;5.92;97.83
929;BME280;451;47.988;7.842;2023-02-01T23:19:15;99554.63;;;6.01;97.72
929;BME280;451;47.988;7.842;2023-02-01T23:28:20;99540.44;;;5.82;97.32
929;BME280;451;47.988;7.842;2023-02-01T23:37:25;99561.53;;;6.02;96.26
929;BME280;451;47.988;7.842;2023-02-01T23:46:31;99505.91;;;5.78;95.70
929;BME280;451;47.988;7.842;2023-02-01T23:55:35;99496.78;;;5.73;95.93
